Latest Weather Observations for Campbelltown

IDN60801

Issued at 9:05 pm EST Thursday 31 July 2014 (issued every 30 minutes, with the page automatically refreshed every 10 minutes)

About weather observations | Map of weather stations | Latest weather observations for NSW | Other Formats
Station Details ID: 068257 Name: CAMPBELLTOWN (MOUNT ANNAN) Lat: -34.06 Lon: 150.77 Height: 112.0 m
Data from the previous 72 hours. | See also: Recent months at Campbelltown
Date/Time
EST
Temp
°C
App
Temp
°C
Dew
Point
Rel
Hum
%
Delta-T
°C
Wind Press
QNH
hPa
Press
MSL
hPa
Rain
since 9 am
mm
Dir
 
Spd
km/h
Gust
km/h
Spd
kts
Gust
kts
31/09:00pm 16.9 11.6 -0.8 30 7.5 N 17 28 9 15 - - 0.0
31/08:30pm 17.7 12.0 -0.5 29 7.8 N 19 26 10 14 - - 0.0
31/08:00pm 18.6 12.6 -1.3 26 8.5 NNW 20 33 11 18 - - 0.0
31/07:30pm 18.6 12.7 -0.7 27 8.3 N 20 32 11 17 - - 0.0
31/07:00pm 19.4 13.5 -1.1 25 8.9 N 20 30 11 16 - - 0.0
31/06:30pm 20.1 14.3 -1.7 23 9.4 NNW 19 32 10 17 - - 0.0
31/06:00pm 20.0 15.0 -1.2 24 9.2 NNW 15 24 8 13 - - 0.0
31/05:30pm 21.2 15.1 -2.0 21 10.0 NNW 20 43 11 23 - - 0.0
31/05:00pm 21.2 16.6 -1.3 22 9.8 NNW 13 28 7 15 - - 0.0
31/04:30pm 22.7 17.2 -2.1 19 10.8 NW 17 32 9 17 - - 0.0
31/04:00pm 23.0 15.6 -3.3 17 11.2 NNW 26 48 14 26 - - 0.0
31/03:30pm 23.6 17.1 -2.1 18 11.3 NW 22 33 12 18 - - 0.0
31/03:00pm 23.6 16.0 -2.1 18 11.3 NW 28 54 15 29 - - 0.0
31/02:30pm 23.7 15.4 -2.0 18 11.3 NNW 32 50 17 27 - - 0.0
31/02:25pm 23.8 16.2 -1.9 18 11.4 NNW 28 48 15 26 - - 0.0
31/02:00pm 24.2 17.1 -1.6 18 11.5 NNW 26 44 14 24 - - 0.0
31/01:30pm 24.3 17.2 -1.5 18 11.5 NNW 26 44 14 24 - - 0.0
31/01:00pm 23.9 16.7 -1.8 18 11.4 NNW 26 39 14 21 - - 0.0
31/12:34pm 23.6 15.7 -1.3 19 11.1 NNW 30 50 16 27 - - 0.0
31/12:30pm 24.0 16.9 -1.0 19 11.3 NNW 26 41 14 22 - - 0.0
31/12:00pm 23.8 17.2 -0.5 20 11.0 NW 24 37 13 20 - - 0.0
31/11:30am 23.0 17.3 -0.5 21 10.6 WNW 19 26 10 14 - - 0.0
31/11:00am 22.2 16.6 1.3 25 9.7 WNW 20 32 11 17 - - 0.0
31/10:30am 20.3 15.6 3.1 32 8.1 NNW 17 28 9 15 - - 0.0
31/10:00am 18.9 15.1 3.9 37 7.1 N 13 22 7 12 - - 0.0
31/09:30am 17.8 15.6 6.0 46 5.8 NNW 7 13 4 7 - - 0.0
31/09:00am 15.0 12.1 6.6 57 4.1 N 11 15 6 8 - - -
31/08:30am 12.8 10.2 6.2 64 3.1 N 9 13 5 7 - - -
31/08:00am 10.8 9.3 6.9 77 1.9 NNW 4 7 2 4 - - -
31/07:30am 8.6 6.1 6.6 87 0.9 N 9 13 5 7 - - -
31/07:00am 6.4 5.2 4.4 87 0.9 CALM 0 0 0 0 - - -
31/06:30am 8.2 7.1 5.3 82 1.3 CALM 0 0 0 0 - - -
31/06:00am 8.7 6.3 4.3 74 1.9 WNW 6 9 3 5 - - -
31/05:30am 11.0 8.5 6.7 75 2.0 NW 9 13 5 7 - - -
31/05:00am 8.0 6.3 6.0 87 0.9 N 4 7 2 4 - - -
31/04:30am 8.8 6.8 6.2 84 1.2 N 6 9 3 5 - - -
31/04:00am 9.7 7.7 7.0 83 1.3 N 7 11 4 6 - - -
31/03:30am 10.3 8.2 6.6 78 1.7 N 7 11 4 6 - - -
31/03:00am 11.3 8.6 7.2 76 2.0 N 11 15 6 8 - - -
31/02:30am 11.1 8.7 7.2 77 1.9 NNW 9 13 5 7 - - -
31/02:00am 10.4 8.3 6.5 77 1.8 NNW 7 11 4 6 - - -
31/01:30am 11.1 8.2 6.5 73 2.2 N 11 15 6 8 - - -
31/01:00am 12.3 10.0 7.6 73 2.3 N 9 13 5 7 - - -
31/12:30am 11.4 9.0 7.1 75 2.1 NNW 9 15 5 8 - - -
31/12:00am 11.2 9.1 6.7 74 2.1 N 7 13 4 7 - - 0.0
 
Date/Time
EST
Temp
°C
App
Temp
°C
Dew
Point
Rel
Hum
%
Delta-T
°C
Wind Press
QNH
hPa
Press
MSL
hPa
Rain
since 9 am
mm
Dir
 
Spd
km/h
Gust
km/h
Spd
kts
Gust
kts
30/11:30pm 11.3 8.9 6.8 74 2.1 N 9 15 5 8 - - 0.0
30/11:00pm 10.8 8.9 6.6 75 2.0 N 6 7 3 4 - - 0.0
30/10:30pm 10.6 8.7 6.6 76 1.9 N 6 9 3 5 - - 0.0
30/10:00pm 10.1 9.3 6.3 77 1.8 CALM 0 0 0 0 - - 0.0
30/09:30pm 10.2 9.3 6.0 75 2.0 CALM 0 6 0 3 - - 0.0
30/09:00pm 11.2 10.3 6.1 71 2.4 CALM 0 0 0 0 - - 0.0
30/08:30pm 11.3 10.4 6.2 71 2.4 CALM 0 0 0 0 - - 0.0
30/08:00pm 11.9 10.2 6.0 67 2.8 W 4 9 2 5 - - 0.0
30/07:30pm 13.0 12.0 5.7 61 3.4 CALM 0 0 0 0 - - 0.0
30/07:00pm 14.6 12.3 5.7 55 4.3 W 7 13 4 7 - - 0.0
30/06:30pm 17.2 14.5 5.8 47 5.6 W 9 17 5 9 - - 0.0
30/06:00pm 16.9 14.6 5.5 47 5.5 WNW 7 11 4 6 - - 0.0
30/05:30pm 18.0 15.2 5.2 43 6.2 W 9 20 5 11 - - 0.0
30/05:00pm 19.1 16.3 5.2 40 6.8 SW 9 15 5 8 - - 0.0
30/04:30pm 20.5 16.9 4.9 36 7.7 W 13 22 7 12 - - 0.0
30/04:00pm 21.0 17.4 5.0 35 7.9 WSW 13 24 7 13 - - 0.0
30/03:30pm 21.4 16.6 4.5 33 8.3 WSW 19 33 10 18 - - 0.0
30/03:00pm 22.2 18.3 5.2 33 8.5 W 15 24 8 13 - - 0.0
30/02:30pm 22.1 18.1 5.1 33 8.5 WSW 15 26 8 14 - - 0.0
30/02:00pm 22.2 18.2 4.7 32 8.7 SW 15 30 8 16 - - 0.0
30/01:30pm 22.4 18.1 5.4 33 8.5 WSW 17 32 9 17 - - 0.0
30/01:00pm 22.4 18.0 4.5 31 8.8 WSW 17 28 9 15 - - 0.0
30/12:30pm 22.2 18.3 5.2 33 8.5 WNW 15 22 8 12 - - 0.0
30/12:00pm 22.1 17.8 5.1 33 8.5 WSW 17 30 9 16 - - 0.0
30/11:30am 21.9 18.0 5.3 34 8.3 WNW 15 26 8 14 - - 0.0
30/11:00am 20.8 15.9 5.2 36 7.7 W 20 28 11 15 - - 0.0
30/10:30am 20.3 17.3 5.9 39 7.2 WNW 11 19 6 10 - - 0.0
30/10:00am 19.7 16.2 5.4 39 7.1 NW 13 20 7 11 - - 0.0
30/09:30am 19.0 16.3 5.5 41 6.6 N 9 15 5 8 - - 0.0
30/09:00am 17.1 14.4 5.4 46 5.7 N 9 13 5 7 - - -
30/08:30am 15.7 12.9 5.3 50 5.0 WNW 9 17 5 9 - - -
30/08:00am 12.7 10.1 4.4 57 3.8 WNW 7 13 4 7 - - -
30/07:30am 13.2 10.3 4.9 57 3.9 WNW 9 15 5 8 - - -
30/07:00am 9.8 7.3 4.0 67 2.6 NW 6 7 3 4 - - -
30/06:30am 12.7 10.1 3.4 53 4.2 W 6 11 3 6 - - -
30/06:00am 15.6 12.4 4.9 49 5.1 WSW 11 24 6 13 - - -
30/05:30am 15.2 11.9 4.6 49 5.0 WSW 11 19 6 10 - - -
30/05:00am 15.0 12.2 5.0 51 4.7 SW 9 20 5 11 - - -
30/04:30am 14.4 11.0 4.1 50 4.8 SSW 11 17 6 9 - - -
30/04:00am 13.9 11.0 4.8 54 4.2 SSW 9 15 5 8 - - -
30/03:30am 10.3 7.7 3.3 62 3.1 S 6 9 3 5 - - -
30/03:00am 10.5 7.9 4.2 65 2.8 SW 7 13 4 7 - - -
30/02:30am 6.9 5.1 3.5 79 1.4 SSW 2 9 1 5 - - -
30/02:00am 7.3 5.6 3.9 79 1.5 SSW 2 11 1 6 - - -
30/01:30am 7.7 6.3 3.7 76 1.7 CALM 0 4 0 2 - - -
30/01:00am 8.4 6.0 4.4 76 1.8 S 6 9 3 5 - - -
30/12:30am 8.3 5.7 3.2 70 2.2 S 6 11 3 6 - - -
30/12:00am 8.7 6.1 3.1 68 2.4 SSE 6 9 3 5 - - -
 
Date/Time
EST
Temp
°C
App
Temp
°C
Dew
Point
Rel
Hum
%
Delta-T
°C
Wind Press
QNH
hPa
Press
MSL
hPa
Rain
since 9 am
mm
Dir
 
Spd
km/h
Gust
km/h
Spd
kts
Gust
kts
29/11:30pm 10.3 8.4 3.1 61 3.1 N 2 7 1 4 - - -
29/11:00pm 12.5 9.7 3.2 53 4.1 N 7 11 4 6 - - -
29/10:30pm 13.1 10.3 3.2 51 4.4 N 7 11 4 6 - - -
29/10:00pm 13.6 10.6 4.2 53 4.3 N 9 17 5 9 - - 0.0
29/09:30pm 10.6 7.9 2.7 58 3.4 N 6 11 3 6 - - 0.0
29/09:00pm 10.6 8.6 2.4 57 3.5 N 2 6 1 3 - - 0.0
29/08:30pm 10.6 8.6 2.2 56 3.6 N 2 6 1 3 - - 0.0
29/08:00pm 10.2 8.5 1.8 56 3.5 CALM 0 7 0 4 - - 0.0
29/07:30pm 11.3 9.5 1.5 51 4.2 CALM 0 0 0 0 - - 0.0
29/07:00pm 11.6 9.1 1.5 50 4.3 NNW 4 7 2 4 - - 0.0
29/06:30pm 13.6 11.4 1.3 43 5.3 N 2 9 1 5 - - 0.0
29/06:00pm 14.7 12.0 0.5 38 6.1 NNW 4 11 2 6 - - 0.0
29/05:30pm 17.0 13.8 -0.2 31 7.4 NNW 6 9 3 5 - - 0.0
29/05:00pm 19.9 16.2 -0.1 26 8.9 WNW 9 13 5 7 - - 0.0
29/04:30pm 21.3 16.8 -0.6 23 9.7 W 13 26 7 14 - - 0.0
29/04:00pm 22.4 18.3 -0.3 22 10.2 WNW 11 17 6 9 - - 0.0
29/03:30pm 23.2 19.1 -0.3 21 10.7 NW 11 20 6 11 - - 0.0
29/03:00pm 23.2 18.5 0.9 23 10.3 NNW 15 24 8 13 - - 0.0
29/02:30pm 23.2 18.9 0.9 23 10.3 NW 13 24 7 13 - - 0.0
29/02:00pm 23.7 20.6 1.4 23 10.5 WNW 7 15 4 8 - - 0.0
29/01:30pm 22.1 17.8 1.2 25 9.7 N 13 24 7 13 - - 0.0
29/01:00pm 21.4 17.3 2.2 28 9.0 N 13 24 7 13 - - 0.0
29/12:30pm 19.4 14.6 2.7 33 7.8 N 17 24 9 13 - - 0.0
29/12:00pm 19.6 14.9 3.3 34 7.7 N 17 28 9 15 - - 0.0
29/11:30am 17.9 12.5 2.6 36 7.0 N 20 32 11 17 - - 0.0
29/11:00am 17.6 13.0 3.9 40 6.5 N 17 26 9 14 - - 0.0
29/10:30am 16.3 12.8 5.3 48 5.3 N 13 24 7 13 - - 0.0
29/10:00am 14.3 11.2 5.4 55 4.2 N 11 17 6 9 - - 0.0
29/09:30am 12.9 10.7 6.3 64 3.2 N 7 11 4 6 - - 0.0
29/09:00am 10.2 8.6 8.1 87 1.0 N 6 7 3 4 - - 0.0
29/08:30am 7.9 7.3 7.5 97 0.2 CALM 0 0 0 0 - - 0.0
29/08:00am 6.5 5.6 5.9 96 0.3 CALM 0 0 0 0 - - 0.0
29/07:30am 5.7 4.6 5.1 96 0.3 CALM 0 0 0 0 - - 0.0
29/07:00am 5.4 4.2 4.5 94 0.4 CALM 0 0 0 0 - - 0.0
29/06:30am 5.8 4.7 5.1 95 0.3 CALM 0 0 0 0 - - 0.0
29/06:00am 5.7 4.5 4.8 94 0.4 CALM 0 0 0 0 - - 0.0
29/05:30am 6.0 4.9 5.0 93 0.4 CALM 0 0 0 0 - - 0.0
29/05:00am 6.3 5.2 4.9 91 0.6 CALM 0 0 0 0 - - 0.0
29/04:30am 6.7 5.7 5.5 92 0.5 CALM 0 0 0 0 - - 0.0
29/04:00am 6.3 5.2 5.1 92 0.5 CALM 0 0 0 0 - - 0.0
29/03:30am 6.5 5.4 5.1 91 0.6 CALM 0 6 0 3 - - 0.0
29/03:00am 6.6 5.5 5.1 90 0.7 CALM 0 0 0 0 - - 0.0
29/02:30am 7.1 5.6 5.1 87 0.9 NNW 2 6 1 3 - - 0.0
29/02:00am 7.7 5.5 5.3 85 1.1 NNW 6 7 3 4 - - 0.0
29/01:30am 7.7 6.6 5.0 83 1.2 CALM 0 0 0 0 - - 0.0
29/01:00am 9.2 8.2 5.8 79 1.6 CALM 0 0 0 0 - - 0.0
29/12:30am 8.7 7.6 4.9 77 1.7 CALM 0 0 0 0 - - 0.0
29/12:00am 8.6 7.5 5.0 78 1.6 CALM 0 0 0 0 - - 0.0
 
Date/Time
EST
Temp
°C
App
Temp
°C
Dew
Point
Rel
Hum
%
Delta-T
°C
Wind Press
QNH
hPa
Press
MSL
hPa
Rain
since 9 am
mm
Dir
 
Spd
km/h
Gust
km/h
Spd
kts
Gust
kts
28/11:30pm 8.9 7.9 5.5 79 1.5 CALM 0 0 0 0 - - 0.0
28/11:00pm 8.9 7.8 5.3 78 1.6 CALM 0 0 0 0 - - 0.0
28/10:30pm 8.6 7.4 4.8 77 1.7 CALM 0 0 0 0 - - 0.0
28/10:00pm 8.9 7.7 4.7 75 1.9 CALM 0 0 0 0 - - 0.0
28/09:30pm 9.5 8.4 4.9 73 2.1 CALM 0 0 0 0 - - 0.0

Other Formats:

Comma delimited format used in spreadsheet applications
http://www.bom.gov.au/fwo/IDN60801/IDN60801.94757.axf

JavaScript Object Notation format (JSON) in row-major order
http://www.bom.gov.au/fwo/IDN60801/IDN60801.94757.json